sensor_id;sensor_type;location;lat;lon;timestamp;temperature;humidity
1976;DHT22;988;48.016;7.800;2022-09-09T00:03:44;18.00;90.30
1976;DHT22;988;48.016;7.800;2022-09-09T00:06:45;18.10;90.40
1976;DHT22;988;48.016;7.800;2022-09-09T00:09:21;18.10;91.40
1976;DHT22;988;48.016;7.800;2022-09-09T00:11:51;18.10;93.40
1976;DHT22;988;48.016;7.800;2022-09-09T00:14:22;18.00;93.70
1976;DHT22;988;48.016;7.800;2022-09-09T00:16:55;18.00;93.40
1976;DHT22;988;48.016;7.800;2022-09-09T00:22:14;17.80;92.80
1976;DHT22;988;48.016;7.800;2022-09-09T00:24:54;17.90;94.00
1976;DHT22;988;48.016;7.800;2022-09-09T00:27:29;17.90;93.90
1976;DHT22;988;48.016;7.800;2022-09-09T00:33:10;17.80;95.70
1976;DHT22;988;48.016;7.800;2022-09-09T00:35:44;17.70;95.90
1976;DHT22;988;48.016;7.800;2022-09-09T00:38:37;17.70;95.80
1976;DHT22;988;48.016;7.800;2022-09-09T00:43:40;17.50;96.70
1976;DHT22;988;48.016;7.800;2022-09-09T00:54:33;17.90;96.50
1976;DHT22;988;48.016;7.800;2022-09-09T00:59:52;17.80;97.90
1976;DHT22;988;48.016;7.800;2022-09-09T01:02:27;17.80;97.50
1976;DHT22;988;48.016;7.800;2022-09-09T01:04:55;17.80;97.40
1976;DHT22;988;48.016;7.800;2022-09-09T01:07:24;17.80;98.30
1976;DHT22;988;48.016;7.800;2022-09-09T01:12:30;17.60;98.30
1976;DHT22;988;48.016;7.800;2022-09-09T01:15:15;17.50;99.10
1976;DHT22;988;48.016;7.800;2022-09-09T01:20:53;17.40;99.20
1976;DHT22;988;48.016;7.800;2022-09-09T01:28:31;17.50;99.90
1976;DHT22;988;48.016;7.800;2022-09-09T01:31:00;17.60;99.90
1976;DHT22;988;48.016;7.800;2022-09-09T01:33:27;17.70;99.70
1976;DHT22;988;48.016;7.800;2022-09-09T01:38:45;17.70;98.50
1976;DHT22;988;48.016;7.800;2022-09-09T01:41:10;17.80;98.30
1976;DHT22;988;48.016;7.800;2022-09-09T01:43:36;17.80;98.70
1976;DHT22;988;48.016;7.800;2022-09-09T01:46:02;17.70;99.00
1976;DHT22;988;48.016;7.800;2022-09-09T01:48:29;17.70;98.80
1976;DHT22;988;48.016;7.800;2022-09-09T01:50:55;17.80;98.70
1976;DHT22;988;48.016;7.800;2022-09-09T01:53:23;17.90;98.50
1976;DHT22;988;48.016;7.800;2022-09-09T01:56:28;17.90;97.70
1976;DHT22;988;48.016;7.800;2022-09-09T01:59:32;17.90;97.60
1976;DHT22;988;48.016;7.800;2022-09-09T02:02:12;17.90;97.60
1976;DHT22;988;48.016;7.800;2022-09-09T02:04:40;17.90;97.90
1976;DHT22;988;48.016;7.800;2022-09-09T02:07:21;17.90;98.50
1976;DHT22;988;48.016;7.800;2022-09-09T02:10:07;17.80;98.60
1976;DHT22;988;48.016;7.800;2022-09-09T02:12:35;17.80;98.90
1976;DHT22;988;48.016;7.800;2022-09-09T02:15:17;17.80;99.50
1976;DHT22;988;48.016;7.800;2022-09-09T02:17:46;17.70;99.10
1976;DHT22;988;48.016;7.800;2022-09-09T02:20:15;17.90;98.90
1976;DHT22;988;48.016;7.800;2022-09-09T02:22:43;17.80;99.30
1976;DHT22;988;48.016;7.800;2022-09-09T02:25:12;17.80;99.40
1976;DHT22;988;48.016;7.800;2022-09-09T02:27:41;17.80;99.70
1976;DHT22;988;48.016;7.800;2022-09-09T02:30:09;17.80;99.50
1976;DHT22;988;48.016;7.800;2022-09-09T02:32:36;17.70;99.90
1976;DHT22;988;48.016;7.800;2022-09-09T02:35:09;17.50;99.90
1976;DHT22;988;48.016;7.800;2022-09-09T02:37:38;17.60;99.90
1976;DHT22;988;48.016;7.800;2022-09-09T02:40:06;17.70;99.80
1976;DHT22;988;48.016;7.800;2022-09-09T02:42:39;17.70;99.90
1976;DHT22;988;48.016;7.800;2022-09-09T02:45:06;17.70;99.90
1976;DHT22;988;48.016;7.800;2022-09-09T02:47:35;17.70;99.90
1976;DHT22;988;48.016;7.800;2022-09-09T02:50:16;17.80;99.90
1976;DHT22;988;48.016;7.800;2022-09-09T02:56:07;17.80;99.90
1976;DHT22;988;48.016;7.800;2022-09-09T02:58:35;17.90;99.90
1976;DHT22;988;48.016;7.800;2022-09-09T03:01:01;17.70;99.90
1976;DHT22;988;48.016;7.800;2022-09-09T03:03:28;17.60;99.90
1976;DHT22;988;48.016;7.800;2022-09-09T03:05:55;17.70;99.90
1976;DHT22;988;48.016;7.800;2022-09-09T03:08:22;17.70;99.90
1976;DHT22;988;48.016;7.800;2022-09-09T03:10:47;17.70;99.90
1976;DHT22;988;48.016;7.800;2022-09-09T03:13:13;17.90;99.90
1976;DHT22;988;48.016;7.800;2022-09-09T03:15:40;17.80;99.90
1976;DHT22;988;48.016;7.800;2022-09-09T03:18:06;17.90;99.90
1976;DHT22;988;48.016;7.800;2022-09-09T03:20:31;17.80;99.90
1976;DHT22;988;48.016;7.800;2022-09-09T03:22:59;17.80;99.90
1976;DHT22;988;48.016;7.800;2022-09-09T03:25:25;17.70;99.90
1976;DHT22;988;48.016;7.800;2022-09-09T03:27:52;17.80;99.90
1976;DHT22;988;48.016;7.800;2022-09-09T03:30:29;17.90;99.90
1976;DHT22;988;48.016;7.800;2022-09-09T03:32:54;18.00;99.90
1976;DHT22;988;48.016;7.800;2022-09-09T03:35:20;17.90;99.90
1976;DHT22;988;48.016;7.800;2022-09-09T03:37:46;17.80;99.90
1976;DHT22;988;48.016;7.800;2022-09-09T03:40:12;17.60;99.90
1976;DHT22;988;48.016;7.800;2022-09-09T03:42:38;17.70;99.90
1976;DHT22;988;48.016;7.800;2022-09-09T03:45:06;17.70;99.90
1976;DHT22;988;48.016;7.800;2022-09-09T03:47:32;17.70;99.90
1976;DHT22;988;48.016;7.800;2022-09-09T03:49:58;17.50;99.90
1976;DHT22;988;48.016;7.800;2022-09-09T03:52:24;17.50;99.90
1976;DHT22;988;48.016;7.800;2022-09-09T03:54:51;17.30;99.90
1976;DHT22;988;48.016;7.800;2022-09-09T03:57:18;17.30;99.90
1976;DHT22;988;48.016;7.800;2022-09-09T03:59:44;17.40;99.90
1976;DHT22;988;48.016;7.800;2022-09-09T04:02:09;17.40;99.90
1976;DHT22;988;48.016;7.800;2022-09-09T04:04:35;17.40;99.90
1976;DHT22;988;48.016;7.800;2022-09-09T04:07:01;17.60;99.90
1976;DHT22;988;48.016;7.800;2022-09-09T04:09:27;17.50;99.90
1976;DHT22;988;48.016;7.800;2022-09-09T04:11:52;17.40;99.90
1976;DHT22;988;48.016;7.800;2022-09-09T04:14:19;17.40;99.90
1976;DHT22;988;48.016;7.800;2022-09-09T04:16:45;17.40;99.90
1976;DHT22;988;48.016;7.800;2022-09-09T04:19:11;17.30;99.90
1976;DHT22;988;48.016;7.800;2022-09-09T04:21:39;17.30;99.90
1976;DHT22;988;48.016;7.800;2022-09-09T04:24:07;17.20;99.90
1976;DHT22;988;48.016;7.800;2022-09-09T04:26:33;17.30;99.90
1976;DHT22;988;48.016;7.800;2022-09-09T04:28:59;17.30;99.90
1976;DHT22;988;48.016;7.800;2022-09-09T04:31:24;17.30;99.90
1976;DHT22;988;48.016;7.800;2022-09-09T04:33:51;17.20;99.90
1976;DHT22;988;48.016;7.800;2022-09-09T04:36:17;17.20;99.90
1976;DHT22;988;48.016;7.800;2022-09-09T04:38:44;17.30;99.90
1976;DHT22;988;48.016;7.800;2022-09-09T04:41:11;17.50;99.90
1976;DHT22;988;48.016;7.800;2022-09-09T04:43:38;17.40;99.90
1976;DHT22;988;48.016;7.800;2022-09-09T04:46:04;17.70;99.90
1976;DHT22;988;48.016;7.800;2022-09-09T04:48:30;17.60;99.90
1976;DHT22;988;48.016;7.800;2022-09-09T04:51:08;17.90;99.90
1976;DHT22;988;48.016;7.800;2022-09-09T04:53:34;17.70;99.90
1976;DHT22;988;48.016;7.800;2022-09-09T04:56:11;17.70;99.90
1976;DHT22;988;48.016;7.800;2022-09-09T04:58:38;17.80;99.90
1976;DHT22;988;48.016;7.800;2022-09-09T05:01:06;17.80;99.90
1976;DHT22;988;48.016;7.800;2022-09-09T05:03:32;17.80;99.90
1976;DHT22;988;48.016;7.800;2022-09-09T05:06:12;17.90;99.90
1976;DHT22;988;48.016;7.800;2022-09-09T05:08:39;17.90;99.90
1976;DHT22;988;48.016;7.800;2022-09-09T05:11:19;17.90;99.90
1976;DHT22;988;48.016;7.800;2022-09-09T05:13:45;18.10;99.90
1976;DHT22;988;48.016;7.800;2022-09-09T05:16:12;18.00;99.90
1976;DHT22;988;48.016;7.800;2022-09-09T05:18:39;18.00;99.90
1976;DHT22;988;48.016;7.800;2022-09-09T05:21:05;18.10;99.90
1976;DHT22;988;48.016;7.800;2022-09-09T05:23:32;18.10;99.90
1976;DHT22;988;48.016;7.800;2022-09-09T05:25:58;18.10;99.90
1976;DHT22;988;48.016;7.800;2022-09-09T05:28:24;18.40;99.90
1976;DHT22;988;48.016;7.800;2022-09-09T05:31:05;18.30;99.90
1976;DHT22;988;48.016;7.800;2022-09-09T05:33:33;18.10;99.90
1976;DHT22;988;48.016;7.800;2022-09-09T05:36:03;18.30;99.90
1976;DHT22;988;48.016;7.800;2022-09-09T05:38:30;18.30;99.90
1976;DHT22;988;48.016;7.800;2022-09-09T05:40:56;18.40;99.90
1976;DHT22;988;48.016;7.800;2022-09-09T05:43:25;18.40;99.90
1976;DHT22;988;48.016;7.800;2022-09-09T05:46:02;18.50;99.90
1976;DHT22;988;48.016;7.800;2022-09-09T05:48:30;18.30;99.90
1976;DHT22;988;48.016;7.800;2022-09-09T05:50:56;18.40;99.90
1976;DHT22;988;48.016;7.800;2022-09-09T05:53:22;18.40;99.90
1976;DHT22;988;48.016;7.800;2022-09-09T05:55:47;18.40;99.90
1976;DHT22;988;48.016;7.800;2022-09-09T05:58:14;18.50;99.90
1976;DHT22;988;48.016;7.800;2022-09-09T06:00:42;18.40;99.90
1976;DHT22;988;48.016;7.800;2022-09-09T06:03:11;18.50;99.90
1976;DHT22;988;48.016;7.800;2022-09-09T06:05:36;18.50;99.90
1976;DHT22;988;48.016;7.800;2022-09-09T06:08:03;18.60;99.90
1976;DHT22;988;48.016;7.800;2022-09-09T06:10:28;18.60;99.90
1976;DHT22;988;48.016;7.800;2022-09-09T06:12:54;18.80;99.90
1976;DHT22;988;48.016;7.800;2022-09-09T06:15:20;18.60;99.90
1976;DHT22;988;48.016;7.800;2022-09-09T06:17:45;18.90;99.90
1976;DHT22;988;48.016;7.800;2022-09-09T06:20:11;18.80;99.90
1976;DHT22;988;48.016;7.800;2022-09-09T06:22:40;18.90;99.90
1976;DHT22;988;48.016;7.800;2022-09-09T06:25:08;18.90;99.90
1976;DHT22;988;48.016;7.800;2022-09-09T06:27:33;19.00;99.90
1976;DHT22;988;48.016;7.800;2022-09-09T06:29:59;19.00;99.90
1976;DHT22;988;48.016;7.800;2022-09-09T06:32:24;19.00;99.90
1976;DHT22;988;48.016;7.800;2022-09-09T06:34:52;19.10;99.90
1976;DHT22;988;48.016;7.800;2022-09-09T06:37:17;19.10;99.90
1976;DHT22;988;48.016;7.800;2022-09-09T06:39:43;19.10;99.90
1976;DHT22;988;48.016;7.800;2022-09-09T06:42:09;19.20;99.90
1976;DHT22;988;48.016;7.800;2022-09-09T06:44:34;19.10;99.90
1976;DHT22;988;48.016;7.800;2022-09-09T06:47:00;19.00;99.90
1976;DHT22;988;48.016;7.800;2022-09-09T06:49:25;18.90;99.90
1976;DHT22;988;48.016;7.800;2022-09-09T06:51:51;18.90;99.90
1976;DHT22;988;48.016;7.800;2022-09-09T06:54:17;18.90;99.90
1976;DHT22;988;48.016;7.800;2022-09-09T06:56:43;19.00;99.90
1976;DHT22;988;48.016;7.800;2022-09-09T06:59:11;19.10;99.90
1976;DHT22;988;48.016;7.800;2022-09-09T07:01:42;19.30;99.90
1976;DHT22;988;48.016;7.800;2022-09-09T07:04:09;19.30;99.90
1976;DHT22;988;48.016;7.800;2022-09-09T07:07:01;19.40;99.90
1976;DHT22;988;48.016;7.800;2022-09-09T07:09:26;19.50;99.90
1976;DHT22;988;48.016;7.800;2022-09-09T07:11:52;19.60;99.90
1976;DHT22;988;48.016;7.800;2022-09-09T07:14:18;19.60;99.90
1976;DHT22;988;48.016;7.800;2022-09-09T07:16:45;19.90;99.90
1976;DHT22;988;48.016;7.800;2022-09-09T07:19:11;19.60;99.90
1976;DHT22;988;48.016;7.800;2022-09-09T07:21:38;19.60;99.90
1976;DHT22;988;48.016;7.800;2022-09-09T07:24:05;19.70;99.90
1976;DHT22;988;48.016;7.800;2022-09-09T07:26:33;19.70;99.90
1976;DHT22;988;48.016;7.800;2022-09-09T07:28:59;19.90;99.90
1976;DHT22;988;48.016;7.800;2022-09-09T07:31:27;20.20;99.50
1976;DHT22;988;48.016;7.800;2022-09-09T07:33:53;20.30;99.70
1976;DHT22;988;48.016;7.800;2022-09-09T07:36:20;20.40;99.30
1976;DHT22;988;48.016;7.800;2022-09-09T07:38:51;20.20;97.90
1976;DHT22;988;48.016;7.800;2022-09-09T07:41:33;20.20;98.00
1976;DHT22;988;48.016;7.800;2022-09-09T07:43:59;20.30;98.50
1976;DHT22;988;48.016;7.800;2022-09-09T07:46:28;20.60;98.20
1976;DHT22;988;48.016;7.800;2022-09-09T07:48:55;21.00;97.20
1976;DHT22;988;48.016;7.800;2022-09-09T07:51:29;20.90;96.60
1976;DHT22;988;48.016;7.800;2022-09-09T07:53:58;20.90;96.90
1976;DHT22;988;48.016;7.800;2022-09-09T07:56:25;20.70;97.00
1976;DHT22;988;48.016;7.800;2022-09-09T07:58:53;20.30;96.50
1976;DHT22;988;48.016;7.800;2022-09-09T08:01:23;19.90;97.00
1976;DHT22;988;48.016;7.800;2022-09-09T08:03:57;20.20;97.80
1976;DHT22;988;48.016;7.800;2022-09-09T08:06:35;20.30;97.60
1976;DHT22;988;48.016;7.800;2022-09-09T08:09:01;20.50;97.40
1976;DHT22;988;48.016;7.800;2022-09-09T08:11:28;20.80;97.20
1976;DHT22;988;48.016;7.800;2022-09-09T08:13:54;20.70;97.20
1976;DHT22;988;48.016;7.800;2022-09-09T08:16:23;20.90;96.80
1976;DHT22;988;48.016;7.800;2022-09-09T08:18:52;20.90;96.10
1976;DHT22;988;48.016;7.800;2022-09-09T08:21:21;21.40;95.90
1976;DHT22;988;48.016;7.800;2022-09-09T08:23:51;21.20;95.40
1976;DHT22;988;48.016;7.800;2022-09-09T08:26:19;21.10;95.30
1976;DHT22;988;48.016;7.800;2022-09-09T08:28:48;21.00;95.30
1976;DHT22;988;48.016;7.800;2022-09-09T08:31:19;21.00;96.10
1976;DHT22;988;48.016;7.800;2022-09-09T08:33:47;20.90;95.60
1976;DHT22;988;48.016;7.800;2022-09-09T08:36:19;20.90;95.70
1976;DHT22;988;48.016;7.800;2022-09-09T08:38:53;21.10;95.90
1976;DHT22;988;48.016;7.800;2022-09-09T08:41:40;21.50;95.70
1976;DHT22;988;48.016;7.800;2022-09-09T08:46:51;21.60;93.70
1976;DHT22;988;48.016;7.800;2022-09-09T08:52:10;21.80;94.20
1976;DHT22;988;48.016;7.800;2022-09-09T08:54:38;22.40;93.40
1976;DHT22;988;48.016;7.800;2022-09-09T08:57:18;22.60;91.00
1976;DHT22;988;48.016;7.800;2022-09-09T08:59:45;22.30;91.70
1976;DHT22;988;48.016;7.800;2022-09-09T09:02:26;22.30;92.20
1976;DHT22;988;48.016;7.800;2022-09-09T09:10:10;22.40;89.00
1976;DHT22;988;48.016;7.800;2022-09-09T09:12:41;22.60;86.90
1976;DHT22;988;48.016;7.800;2022-09-09T09:15:25;23.10;84.60
1976;DHT22;988;48.016;7.800;2022-09-09T09:17:51;23.10;82.10
1976;DHT22;988;48.016;7.800;2022-09-09T09:20:20;23.50;82.80
1976;DHT22;988;48.016;7.800;2022-09-09T09:22:51;24.10;81.50
1976;DHT22;988;48.016;7.800;2022-09-09T09:25:19;24.20;79.40
1976;DHT22;988;48.016;7.800;2022-09-09T09:30:31;24.00;76.30
1976;DHT22;988;48.016;7.800;2022-09-09T09:33:05;23.90;77.90
1976;DHT22;988;48.016;7.800;2022-09-09T09:35:31;24.40;75.10
1976;DHT22;988;48.016;7.800;2022-09-09T09:37:57;23.90;73.00
1976;DHT22;988;48.016;7.800;2022-09-09T09:40:26;23.90;74.20
1976;DHT22;988;48.016;7.800;2022-09-09T09:42:53;24.10;74.80
1976;DHT22;988;48.016;7.800;2022-09-09T09:48:02;24.90;71.40
1976;DHT22;988;48.016;7.800;2022-09-09T09:50:28;24.90;71.60
1976;DHT22;988;48.016;7.800;2022-09-09T09:52:56;25.60;68.80
1976;DHT22;988;48.016;7.800;2022-09-09T09:55:23;25.90;67.70
1976;DHT22;988;48.016;7.800;2022-09-09T09:57:50;25.80;66.30
1976;DHT22;988;48.016;7.800;2022-09-09T10:00:17;25.80;65.30
1976;DHT22;988;48.016;7.800;2022-09-09T10:02:44;25.90;63.90
1976;DHT22;988;48.016;7.800;2022-09-09T10:05:22;26.00;63.40
1976;DHT22;988;48.016;7.800;2022-09-09T10:08:11;25.80;64.70
1976;DHT22;988;48.016;7.800;2022-09-09T10:16:34;26.20;63.20
1976;DHT22;988;48.016;7.800;2022-09-09T10:19:09;25.20;63.80
1976;DHT22;988;48.016;7.800;2022-09-09T10:22:01;24.40;65.30
1976;DHT22;988;48.016;7.800;2022-09-09T10:30:22;23.20;72.90
1976;DHT22;988;48.016;7.800;2022-09-09T10:33:10;23.30;71.60
1976;DHT22;988;48.016;7.800;2022-09-09T10:41:24;22.60;72.00
1976;DHT22;988;48.016;7.800;2022-09-09T10:44:06;23.00;74.50
1976;DHT22;988;48.016;7.800;2022-09-09T10:52:43;23.80;71.00
1976;DHT22;988;48.016;7.800;2022-09-09T10:55:17;24.50;72.80
1976;DHT22;988;48.016;7.800;2022-09-09T10:57:48;26.00;67.40
1976;DHT22;988;48.016;7.800;2022-09-09T11:00:23;26.40;67.10
1976;DHT22;988;48.016;7.800;2022-09-09T11:03:01;26.60;63.30
1976;DHT22;988;48.016;7.800;2022-09-09T11:05:40;25.50;66.00
1976;DHT22;988;48.016;7.800;2022-09-09T11:18:46;24.20;66.70
1976;DHT22;988;48.016;7.800;2022-09-09T11:21:34;24.00;67.90
1976;DHT22;988;48.016;7.800;2022-09-09T11:25:13;23.90;69.30
1976;DHT22;988;48.016;7.800;2022-09-09T11:27:15;24.00;69.30
1976;DHT22;988;48.016;7.800;2022-09-09T11:38:26;26.10;64.10
1976;DHT22;988;48.016;7.800;2022-09-09T11:41:04;27.10;62.20
1976;DHT22;988;48.016;7.800;2022-09-09T11:46:06;29.30;57.00
1976;DHT22;988;48.016;7.800;2022-09-09T11:48:44;29.00;56.20
1976;DHT22;988;48.016;7.800;2022-09-09T11:53:53;29.10;56.60
1976;DHT22;988;48.016;7.800;2022-09-09T11:59:05;26.00;60.30
1976;DHT22;988;48.016;7.800;2022-09-09T12:01:36;27.10;62.80
1976;DHT22;988;48.016;7.800;2022-09-09T12:06:52;29.30;55.20
1976;DHT22;988;48.016;7.800;2022-09-09T12:09:33;29.10;53.50
1976;DHT22;988;48.016;7.800;2022-09-09T12:12:22;28.60;54.30
1976;DHT22;988;48.016;7.800;2022-09-09T12:15:22;27.30;55.60
1976;DHT22;988;48.016;7.800;2022-09-09T12:17:51;26.90;56.90
1976;DHT22;988;48.016;7.800;2022-09-09T12:25:55;28.10;53.80
1976;DHT22;988;48.016;7.800;2022-09-09T12:31:13;27.10;54.80
1976;DHT22;988;48.016;7.800;2022-09-09T12:33:43;25.80;57.10
1976;DHT22;988;48.016;7.800;2022-09-09T12:36:24;25.50;58.20
1976;DHT22;988;48.016;7.800;2022-09-09T12:38:50;24.90;59.10
1976;DHT22;988;48.016;7.800;2022-09-09T12:41:26;24.30;60.50
1976;DHT22;988;48.016;7.800;2022-09-09T12:44:04;23.80;62.50
1976;DHT22;988;48.016;7.800;2022-09-09T12:46:49;23.90;64.60
1976;DHT22;988;48.016;7.800;2022-09-09T12:49:35;23.50;63.90
1976;DHT22;988;48.016;7.800;2022-09-09T12:52:14;23.40;64.90
1976;DHT22;988;48.016;7.800;2022-09-09T12:54:44;23.80;65.20
1976;DHT22;988;48.016;7.800;2022-09-09T12:57:12;23.50;63.80
1976;DHT22;988;48.016;7.800;2022-09-09T12:59:40;23.60;64.80
1976;DHT22;988;48.016;7.800;2022-09-09T13:02:26;23.70;62.20
1976;DHT22;988;48.016;7.800;2022-09-09T13:04:53;23.20;63.90
1976;DHT22;988;48.016;7.800;2022-09-09T13:07:20;22.90;64.90
1976;DHT22;988;48.016;7.800;2022-09-09T13:09:48;22.80;67.70
1976;DHT22;988;48.016;7.800;2022-09-09T13:12:21;22.40;67.20
1976;DHT22;988;48.016;7.800;2022-09-09T13:14:54;22.30;68.00
1976;DHT22;988;48.016;7.800;2022-09-09T13:17:24;22.00;68.10
1976;DHT22;988;48.016;7.800;2022-09-09T13:19:51;22.00;68.00
1976;DHT22;988;48.016;7.800;2022-09-09T13:22:29;21.80;69.00
1976;DHT22;988;48.016;7.800;2022-09-09T13:27:30;21.40;73.80
1976;DHT22;988;48.016;7.800;2022-09-09T13:29:56;21.30;72.10
1976;DHT22;988;48.016;7.800;2022-09-09T13:32:24;21.00;73.00
1976;DHT22;988;48.016;7.800;2022-09-09T13:34:51;20.40;72.90
1976;DHT22;988;48.016;7.800;2022-09-09T13:37:44;20.20;76.40
1976;DHT22;988;48.016;7.800;2022-09-09T13:40:18;20.40;76.70
1976;DHT22;988;48.016;7.800;2022-09-09T13:42:44;21.00;78.70
1976;DHT22;988;48.016;7.800;2022-09-09T13:45:21;21.20;76.90
1976;DHT22;988;48.016;7.800;2022-09-09T13:47:49;22.70;76.50
1976;DHT22;988;48.016;7.800;2022-09-09T13:50:25;23.00;75.40
1976;DHT22;988;48.016;7.800;2022-09-09T13:53:01;23.30;70.80
1976;DHT22;988;48.016;7.800;2022-09-09T13:55:28;25.10;68.90
1976;DHT22;988;48.016;7.800;2022-09-09T13:57:59;27.80;63.10
1976;DHT22;988;48.016;7.800;2022-09-09T14:00:32;30.30;56.80
1976;DHT22;988;48.016;7.800;2022-09-09T14:03:04;31.40;55.90
1976;DHT22;988;48.016;7.800;2022-09-09T14:05:33;32.60;50.50
1976;DHT22;988;48.016;7.800;2022-09-09T14:08:00;30.80;52.20
1976;DHT22;988;48.016;7.800;2022-09-09T14:10:26;28.30;55.30
1976;DHT22;988;48.016;7.800;2022-09-09T14:12:51;26.40;59.50
1976;DHT22;988;48.016;7.800;2022-09-09T14:15:18;26.80;59.90
1976;DHT22;988;48.016;7.800;2022-09-09T14:17:44;27.00;59.50
1976;DHT22;988;48.016;7.800;2022-09-09T14:20:10;25.60;61.60
1976;DHT22;988;48.016;7.800;2022-09-09T14:22:37;25.10;63.60
1976;DHT22;988;48.016;7.800;2022-09-09T14:25:05;24.40;66.50
1976;DHT22;988;48.016;7.800;2022-09-09T14:27:31;23.60;69.00
1976;DHT22;988;48.016;7.800;2022-09-09T14:29:58;23.30;69.10
1976;DHT22;988;48.016;7.800;2022-09-09T14:32:23;25.30;67.30
1976;DHT22;988;48.016;7.800;2022-09-09T14:34:49;28.10;63.00
1976;DHT22;988;48.016;7.800;2022-09-09T14:37:17;29.10;60.30
1976;DHT22;988;48.016;7.800;2022-09-09T14:39:43;29.30;58.70
1976;DHT22;988;48.016;7.800;2022-09-09T14:42:13;29.20;58.50
1976;DHT22;988;48.016;7.800;2022-09-09T14:44:39;29.60;57.10
1976;DHT22;988;48.016;7.800;2022-09-09T14:47:06;29.30;56.90
1976;DHT22;988;48.016;7.800;2022-09-09T14:49:33;28.20;57.30
1976;DHT22;988;48.016;7.800;2022-09-09T14:51:59;26.50;61.10
1976;DHT22;988;48.016;7.800;2022-09-09T14:54:25;24.80;65.00
1976;DHT22;988;48.016;7.800;2022-09-09T14:56:51;24.00;67.60
1976;DHT22;988;48.016;7.800;2022-09-09T14:59:16;23.60;68.10
1976;DHT22;988;48.016;7.800;2022-09-09T15:01:42;23.00;70.60
1976;DHT22;988;48.016;7.800;2022-09-09T15:04:07;22.90;71.30
1976;DHT22;988;48.016;7.800;2022-09-09T15:06:35;23.00;73.10
1976;DHT22;988;48.016;7.800;2022-09-09T15:09:02;22.50;68.90
1976;DHT22;988;48.016;7.800;2022-09-09T15:11:31;22.20;69.40
1976;DHT22;988;48.016;7.800;2022-09-09T15:13:59;22.30;67.60
1976;DHT22;988;48.016;7.800;2022-09-09T15:16:27;22.60;67.50
1976;DHT22;988;48.016;7.800;2022-09-09T15:18:58;22.80;68.10
1976;DHT22;988;48.016;7.800;2022-09-09T15:21:26;23.20;65.30
1976;DHT22;988;48.016;7.800;2022-09-09T15:23:52;23.10;65.90
1976;DHT22;988;48.016;7.800;2022-09-09T15:26:18;22.80;66.70
1976;DHT22;988;48.016;7.800;2022-09-09T15:28:45;22.20;67.40
1976;DHT22;988;48.016;7.800;2022-09-09T15:31:22;21.80;68.50
1976;DHT22;988;48.016;7.800;2022-09-09T15:33:48;21.70;69.40
1976;DHT22;988;48.016;7.800;2022-09-09T15:36:21;21.80;70.70
1976;DHT22;988;48.016;7.800;2022-09-09T15:38:50;21.80;69.70
1976;DHT22;988;48.016;7.800;2022-09-09T15:41:18;21.70;69.20
1976;DHT22;988;48.016;7.800;2022-09-09T15:43:49;21.70;69.80
1976;DHT22;988;48.016;7.800;2022-09-09T15:48:49;21.40;71.00
1976;DHT22;988;48.016;7.800;2022-09-09T15:51:16;21.40;71.80
1976;DHT22;988;48.016;7.800;2022-09-09T15:53:41;21.00;72.60
1976;DHT22;988;48.016;7.800;2022-09-09T15:56:07;21.00;73.60
1976;DHT22;988;48.016;7.800;2022-09-09T15:58:34;20.80;73.90
1976;DHT22;988;48.016;7.800;2022-09-09T16:01:06;20.80;74.20
1976;DHT22;988;48.016;7.800;2022-09-09T16:03:40;21.00;75.20
1976;DHT22;988;48.016;7.800;2022-09-09T16:06:13;20.80;74.90
1976;DHT22;988;48.016;7.800;2022-09-09T16:08:42;20.70;74.80
1976;DHT22;988;48.016;7.800;2022-09-09T16:11:13;20.70;76.20
1976;DHT22;988;48.016;7.800;2022-09-09T16:13:43;20.50;78.30
1976;DHT22;988;48.016;7.800;2022-09-09T16:16:13;20.50;80.90
1976;DHT22;988;48.016;7.800;2022-09-09T16:18:46;20.20;82.40
1976;DHT22;988;48.016;7.800;2022-09-09T16:21:18;19.80;86.40
1976;DHT22;988;48.016;7.800;2022-09-09T16:23:44;19.50;90.20
1976;DHT22;988;48.016;7.800;2022-09-09T16:26:12;19.40;91.30
1976;DHT22;988;48.016;7.800;2022-09-09T16:28:38;19.10;93.20
1976;DHT22;988;48.016;7.800;2022-09-09T16:31:09;18.90;94.70
1976;DHT22;988;48.016;7.800;2022-09-09T16:33:36;18.80;97.60
1976;DHT22;988;48.016;7.800;2022-09-09T16:36:09;19.00;94.80
1976;DHT22;988;48.016;7.800;2022-09-09T16:38:36;19.20;94.80
1976;DHT22;988;48.016;7.800;2022-09-09T16:41:04;19.40;96.20
1976;DHT22;988;48.016;7.800;2022-09-09T16:43:34;19.70;94.30
1976;DHT22;988;48.016;7.800;2022-09-09T16:46:02;19.50;94.70
1976;DHT22;988;48.016;7.800;2022-09-09T16:48:32;19.40;95.70
1976;DHT22;988;48.016;7.800;2022-09-09T16:51:06;19.20;96.60
1976;DHT22;988;48.016;7.800;2022-09-09T16:53:35;19.10;96.90
1976;DHT22;988;48.016;7.800;2022-09-09T16:56:19;19.00;97.90
1976;DHT22;988;48.016;7.800;2022-09-09T16:58:50;19.00;97.90
1976;DHT22;988;48.016;7.800;2022-09-09T17:01:23;18.80;99.30
1976;DHT22;988;48.016;7.800;2022-09-09T17:03:55;18.50;99.60
1976;DHT22;988;48.016;7.800;2022-09-09T17:06:22;18.60;99.90
1976;DHT22;988;48.016;7.800;2022-09-09T17:08:53;18.60;99.50
1976;DHT22;988;48.016;7.800;2022-09-09T17:11:18;18.60;99.90
1976;DHT22;988;48.016;7.800;2022-09-09T17:13:46;18.70;99.90
1976;DHT22;988;48.016;7.800;2022-09-09T17:16:16;18.40;99.90
1976;DHT22;988;48.016;7.800;2022-09-09T17:18:50;18.40;99.90
1976;DHT22;988;48.016;7.800;2022-09-09T17:21:21;18.50;99.90
1976;DHT22;988;48.016;7.800;2022-09-09T17:23:54;18.40;99.90
1976;DHT22;988;48.016;7.800;2022-09-09T17:26:27;18.50;99.90
1976;DHT22;988;48.016;7.800;2022-09-09T17:28:56;18.50;99.90
1976;DHT22;988;48.016;7.800;2022-09-09T17:31:24;18.30;99.90
1976;DHT22;988;48.016;7.800;2022-09-09T17:33:51;18.50;99.80
1976;DHT22;988;48.016;7.800;2022-09-09T17:36:39;18.60;99.60
1976;DHT22;988;48.016;7.800;2022-09-09T17:39:06;18.30;99.90
1976;DHT22;988;48.016;7.800;2022-09-09T17:41:36;18.30;99.90
1976;DHT22;988;48.016;7.800;2022-09-09T17:44:03;18.40;99.90
1976;DHT22;988;48.016;7.800;2022-09-09T17:46:31;18.30;99.90
1976;DHT22;988;48.016;7.800;2022-09-09T17:49:00;18.20;99.90
1976;DHT22;988;48.016;7.800;2022-09-09T17:51:27;18.30;99.90
1976;DHT22;988;48.016;7.800;2022-09-09T17:54:04;18.20;99.90
1976;DHT22;988;48.016;7.800;2022-09-09T17:56:35;18.10;99.90
1976;DHT22;988;48.016;7.800;2022-09-09T17:59:05;18.10;99.90
1976;DHT22;988;48.016;7.800;2022-09-09T18:01:43;18.00;99.90
1976;DHT22;988;48.016;7.800;2022-09-09T18:04:14;18.10;99.90
1976;DHT22;988;48.016;7.800;2022-09-09T18:06:50;18.10;99.90
1976;DHT22;988;48.016;7.800;2022-09-09T18:09:39;18.20;99.90
1976;DHT22;988;48.016;7.800;2022-09-09T18:12:07;18.20;99.90
1976;DHT22;988;48.016;7.800;2022-09-09T18:14:36;18.10;99.90
1976;DHT22;988;48.016;7.800;2022-09-09T18:17:02;18.10;99.90
1976;DHT22;988;48.016;7.800;2022-09-09T18:19:31;18.00;99.90
1976;DHT22;988;48.016;7.800;2022-09-09T18:22:05;18.20;99.90
1976;DHT22;988;48.016;7.800;2022-09-09T18:24:31;18.10;99.90
1976;DHT22;988;48.016;7.800;2022-09-09T18:26:57;18.20;99.90
1976;DHT22;988;48.016;7.800;2022-09-09T18:29:23;18.10;99.90
1976;DHT22;988;48.016;7.800;2022-09-09T18:31:52;17.90;99.90
1976;DHT22;988;48.016;7.800;2022-09-09T18:34:19;18.00;99.90
1976;DHT22;988;48.016;7.800;2022-09-09T18:36:50;18.10;99.90
1976;DHT22;988;48.016;7.800;2022-09-09T18:39:26;17.90;99.90